createdAt,value
2022-09-06T00:00:36.784Z,1.84
2022-09-06T00:03:04.294Z,2.01
2022-09-06T00:05:31.733Z,1.90
2022-09-06T00:07:59.622Z,1.95
2022-09-06T00:10:27.034Z,1.99
2022-09-06T00:12:53.746Z,2.16
2022-09-06T00:15:21.099Z,2.06
2022-09-06T00:17:48.192Z,2.30
2022-09-06T00:20:15.190Z,2.40
2022-09-06T00:22:41.940Z,2.57
2022-09-06T00:25:08.768Z,2.63
2022-09-06T00:27:35.366Z,2.54
2022-09-06T00:30:01.977Z,2.73
2022-09-06T00:32:28.585Z,2.71
2022-09-06T00:34:55.128Z,2.71
2022-09-06T00:37:21.685Z,2.78
2022-09-06T00:39:48.348Z,2.90
2022-09-06T00:42:14.952Z,2.77
2022-09-06T00:44:41.589Z,2.33
2022-09-06T00:47:08.714Z,2.33
2022-09-06T00:49:40.085Z,2.54
2022-09-06T00:52:10.891Z,2.78
2022-09-06T00:54:38.902Z,2.72
2022-09-06T00:57:05.537Z,2.92
2022-09-06T00:59:34.629Z,2.87
2022-09-06T01:02:01.302Z,3.09
2022-09-06T01:04:29.533Z,3.14
2022-09-06T01:06:56.049Z,3.29
2022-09-06T01:09:48.356Z,3.22
2022-09-06T01:12:15.001Z,3.34
2022-09-06T01:14:56.672Z,3.18
2022-09-06T01:17:42.613Z,3.28
2022-09-06T01:20:28.298Z,3.32
2022-09-06T01:22:54.789Z,3.62
2022-09-06T01:25:21.358Z,3.47
2022-09-06T01:28:12.389Z,3.67
2022-09-06T01:30:46.131Z,3.77
2022-09-06T01:33:19.413Z,3.57
2022-09-06T01:35:46.072Z,3.97
2022-09-06T01:38:14.418Z,3.95
2022-09-06T01:40:40.980Z,3.71
2022-09-06T01:43:11.260Z,4.20
2022-09-06T01:45:37.945Z,4.47
2022-09-06T01:48:07.690Z,4.71
2022-09-06T01:50:34.423Z,4.20
2022-09-06T01:53:13.323Z,4.34
2022-09-06T01:56:01.299Z,4.49
2022-09-06T01:58:41.233Z,4.49
2022-09-06T02:01:10.879Z,4.42
2022-09-06T02:03:46.713Z,4.69
2022-09-06T02:06:18.396Z,4.33
2022-09-06T02:08:48.486Z,4.59
2022-09-06T02:11:16.482Z,4.69
2022-09-06T02:13:59.682Z,4.78
2022-09-06T02:16:30.991Z,5.11
2022-09-06T02:18:57.654Z,4.84
2022-09-06T02:21:29.856Z,4.97
2022-09-06T02:23:58.628Z,4.78
2022-09-06T02:26:28.669Z,4.75
2022-09-06T02:28:55.891Z,5.00
2022-09-06T02:31:27.762Z,5.14
2022-09-06T02:33:54.696Z,5.42
2022-09-06T02:36:21.593Z,5.41
2022-09-06T02:38:48.941Z,5.47
2022-09-06T02:41:18.581Z,5.26
2022-09-06T02:43:45.146Z,5.09
2022-09-06T02:46:12.649Z,5.28
2022-09-06T02:48:39.252Z,5.26
2022-09-06T02:51:07.493Z,5.49
2022-09-06T02:53:34.815Z,5.41
2022-09-06T02:56:02.009Z,4.99
2022-09-06T02:58:29.576Z,5.38
2022-09-06T03:00:56.268Z,5.08
2022-09-06T03:03:23.466Z,5.25
2022-09-06T03:05:51.521Z,4.89
2022-09-06T03:08:19.962Z,5.25
2022-09-06T03:10:50.176Z,5.42
2022-09-06T03:13:17.299Z,5.36
2022-09-06T03:15:44.029Z,5.49
2022-09-06T03:18:10.856Z,5.56
2022-09-06T03:20:37.490Z,5.46
2022-09-06T03:23:04.124Z,5.34
2022-09-06T03:25:30.673Z,5.36
2022-09-06T03:27:57.202Z,5.56
2022-09-06T03:30:23.806Z,5.55
2022-09-06T03:32:50.354Z,5.55
2022-09-06T03:35:16.994Z,5.59
2022-09-06T03:37:43.587Z,5.77
2022-09-06T03:40:10.521Z,5.66
2022-09-06T03:42:37.156Z,5.41
2022-09-06T03:45:03.969Z,5.72
2022-09-06T03:47:30.494Z,5.65
2022-09-06T03:49:57.086Z,5.58
2022-09-06T03:52:23.679Z,5.87
2022-09-06T03:54:50.240Z,5.51
2022-09-06T03:57:16.804Z,5.50
2022-09-06T03:59:43.625Z,5.58
2022-09-06T04:02:10.478Z,5.76
2022-09-06T04:04:37.127Z,5.64
2022-09-06T04:07:03.935Z,6.01
2022-09-06T04:09:30.644Z,5.50
2022-09-06T04:11:57.243Z,5.43
2022-09-06T04:14:23.835Z,5.71
2022-09-06T04:16:50.609Z,5.68
2022-09-06T04:19:17.254Z,5.87
2022-09-06T04:21:44.141Z,5.85
2022-09-06T04:24:10.679Z,6.11
2022-09-06T04:26:37.538Z,5.81
2022-09-06T04:29:04.494Z,6.19
2022-09-06T04:31:31.139Z,5.98
2022-09-06T04:33:57.731Z,6.46
2022-09-06T04:36:24.298Z,6.42
2022-09-06T04:38:51.021Z,6.15
2022-09-06T04:41:18.898Z,6.33
2022-09-06T04:43:45.534Z,6.26
2022-09-06T04:46:12.125Z,6.20
2022-09-06T04:48:38.672Z,6.27
2022-09-06T04:51:05.385Z,6.14
2022-09-06T04:53:31.966Z,6.08
2022-09-06T04:55:58.716Z,6.19
2022-09-06T04:58:25.415Z,6.07
2022-09-06T05:00:52.182Z,6.37
2022-09-06T05:03:18.844Z,6.53
2022-09-06T05:05:45.489Z,6.31
2022-09-06T05:08:12.124Z,6.48
2022-09-06T05:10:38.714Z,6.45
2022-09-06T05:13:05.280Z,6.74
2022-09-06T05:15:31.819Z,6.94
2022-09-06T05:18:03.354Z,7.08
2022-09-06T05:20:30.106Z,7.15
2022-09-06T05:22:56.706Z,7.21
2022-09-06T05:25:23.255Z,6.97
2022-09-06T05:27:49.776Z,7.22
2022-09-06T05:30:18.137Z,7.05
2022-09-06T05:32:44.828Z,7.10
2022-09-06T05:35:11.435Z,6.75
2022-09-06T05:37:38.035Z,7.58
2022-09-06T05:40:05.003Z,7.39
2022-09-06T05:42:31.664Z,7.00
2022-09-06T05:44:58.305Z,7.66
2022-09-06T05:47:25.155Z,7.32
2022-09-06T05:49:52.210Z,7.30
2022-09-06T05:52:19.884Z,7.19
2022-09-06T05:54:46.491Z,7.42
2022-09-06T05:57:13.089Z,7.15
2022-09-06T05:59:39.661Z,9.50
2022-09-06T06:02:07.519Z,21.82
2022-09-06T06:04:34.412Z,14.01
2022-09-06T06:07:01.619Z,8.68
2022-09-06T06:09:28.201Z,8.44
2022-09-06T06:11:54.787Z,7.97
2022-09-06T06:14:21.365Z,8.06
2022-09-06T06:16:48.024Z,8.01
2022-09-06T06:19:15.538Z,7.73
2022-09-06T06:21:43.666Z,5.77
2022-09-06T06:24:10.294Z,6.19
2022-09-06T06:26:37.475Z,6.82
2022-09-06T06:29:05.718Z,6.23
2022-09-06T06:31:33.340Z,6.44
2022-09-06T06:34:02.821Z,6.78
2022-09-06T06:36:33.950Z,6.34
2022-09-06T06:39:01.832Z,7.09
2022-09-06T06:41:29.745Z,6.96
2022-09-06T06:43:57.690Z,7.02
2022-09-06T06:46:26.077Z,7.15
2022-09-06T06:48:55.262Z,7.68
2022-09-06T06:51:23.175Z,7.36
2022-09-06T06:53:49.706Z,7.25
2022-09-06T06:56:29.955Z,7.76
2022-09-06T06:58:58.196Z,6.77
2022-09-06T07:01:26.276Z,6.49
2022-09-06T07:03:54.420Z,7.17
2022-09-06T07:06:21.849Z,9.00
2022-09-06T07:08:49.193Z,9.24
2022-09-06T07:11:19.449Z,8.93
2022-09-06T07:13:48.153Z,9.20
2022-09-06T07:16:15.353Z,8.97
2022-09-06T07:18:42.480Z,8.69
2022-09-06T07:26:31.257Z,9.40
2022-09-06T07:28:59.826Z,10.10
2022-09-06T07:34:14.531Z,10.84
2022-09-06T07:36:41.218Z,9.87
2022-09-06T07:39:07.886Z,10.46
2022-09-06T07:41:34.401Z,9.93
2022-09-06T07:44:00.944Z,9.49
2022-09-06T07:46:27.549Z,9.63
2022-09-06T07:48:54.238Z,9.89
2022-09-06T07:51:21.653Z,9.39
2022-09-06T07:54:07.090Z,8.82
2022-09-06T07:56:39.120Z,9.19
2022-09-06T07:59:05.658Z,9.38
2022-09-06T08:01:34.327Z,9.26
2022-09-06T08:04:06.898Z,9.66
2022-09-06T08:09:21.785Z,9.96
2022-09-06T08:11:48.840Z,10.20
2022-09-06T08:14:15.561Z,9.72
2022-09-06T08:16:42.280Z,10.46
2022-09-06T08:19:09.086Z,10.13
2022-09-06T08:21:35.709Z,9.63
2022-09-06T08:24:04.417Z,9.64
2022-09-06T08:26:32.354Z,9.95
2022-09-06T08:29:00.628Z,9.98
2022-09-06T08:31:28.472Z,9.93
2022-09-06T08:33:56.593Z,10.56
2022-09-06T08:36:23.311Z,10.94
2022-09-06T08:38:49.889Z,10.27
2022-09-06T08:41:16.372Z,10.45
2022-09-06T08:43:51.508Z,10.61
2022-09-06T08:46:22.242Z,10.70
2022-09-06T08:48:49.133Z,9.72
2022-09-06T08:51:27.794Z,10.22
2022-09-06T08:54:00.061Z,10.45
2022-09-06T08:56:38.682Z,9.24
2022-09-06T08:59:07.382Z,9.29
2022-09-06T09:01:44.078Z,10.59
2022-09-06T09:04:15.640Z,9.81
2022-09-06T09:06:46.262Z,9.55
2022-09-06T09:09:15.111Z,10.17
2022-09-06T09:11:43.916Z,9.75
2022-09-06T09:14:27.144Z,8.99
2022-09-06T09:16:55.530Z,8.75
2022-09-06T09:19:22.286Z,8.44
2022-09-06T09:21:49.014Z,8.46
2022-09-06T09:24:16.173Z,8.56
2022-09-06T09:26:56.921Z,7.45
2022-09-06T09:29:28.075Z,8.01
2022-09-06T09:31:56.235Z,7.86
2022-09-06T09:34:33.271Z,6.74
2022-09-06T09:40:27.673Z,7.22
2022-09-06T09:43:08.191Z,6.99
2022-09-06T09:45:34.746Z,8.01
2022-09-06T09:48:20.617Z,7.56
2022-09-06T09:50:47.966Z,8.85
2022-09-06T09:53:17.414Z,8.81
2022-09-06T09:55:45.852Z,8.43
2022-09-06T09:58:30.068Z,7.88
2022-09-06T10:01:10.399Z,8.81
2022-09-06T10:09:32.570Z,9.37
2022-09-06T10:12:00.003Z,9.36
2022-09-06T10:14:39.705Z,8.87
2022-09-06T10:17:06.262Z,8.97
2022-09-06T10:19:44.289Z,10.11
2022-09-06T10:22:21.342Z,11.01
2022-09-06T10:24:57.577Z,9.68
2022-09-06T10:27:26.442Z,8.72
2022-09-06T10:30:05.759Z,8.81
2022-09-06T10:32:40.554Z,8.20
2022-09-06T10:35:13.221Z,7.99
2022-09-06T10:37:48.676Z,7.69
2022-09-06T10:40:27.380Z,8.32
2022-09-06T10:42:57.093Z,8.89
2022-09-06T10:45:23.692Z,9.47
2022-09-06T10:47:53.241Z,8.37
2022-09-06T10:50:20.086Z,7.49
2022-09-06T10:52:49.065Z,6.98
2022-09-06T10:55:18.458Z,7.96
2022-09-06T11:00:46.848Z,7.43
2022-09-06T11:06:11.081Z,8.42
2022-09-06T11:08:49.042Z,8.00
2022-09-06T11:11:23.252Z,7.79
2022-09-06T11:13:49.985Z,7.64
2022-09-06T11:16:25.611Z,6.64
2022-09-06T11:19:01.633Z,6.54
2022-09-06T11:21:47.010Z,6.66
2022-09-06T11:24:32.283Z,7.33
2022-09-06T11:27:05.905Z,7.86
2022-09-06T11:29:34.740Z,7.81
2022-09-06T11:32:18.909Z,8.40
2022-09-06T11:34:57.639Z,8.05
2022-09-06T11:37:32.669Z,8.10
2022-09-06T11:40:26.909Z,8.78
2022-09-06T11:42:54.752Z,8.28
2022-09-06T11:45:38.875Z,8.36
2022-09-06T11:48:23.909Z,9.25
2022-09-06T11:50:53.477Z,9.08
2022-09-06T11:53:21.230Z,9.63
2022-09-06T11:56:10.289Z,10.95
2022-09-06T11:58:42.675Z,10.91
2022-09-06T12:01:12.380Z,11.33
2022-09-06T12:06:28.696Z,11.05
2022-09-06T12:08:56.176Z,10.19
2022-09-06T12:11:22.869Z,10.96
2022-09-06T12:13:54.480Z,9.96
2022-09-06T12:16:22.354Z,8.77
2022-09-06T12:18:49.044Z,8.95
2022-09-06T12:21:35.829Z,7.50
2022-09-06T12:24:03.174Z,7.71
2022-09-06T12:26:53.199Z,7.47
2022-09-06T12:29:26.773Z,6.39
2022-09-06T12:32:04.700Z,6.44
2022-09-06T12:34:34.736Z,6.61
2022-09-06T12:37:04.718Z,5.38
2022-09-06T12:39:31.602Z,4.86
2022-09-06T12:42:01.903Z,5.19
2022-09-06T12:44:31.783Z,5.19
2022-09-06T12:47:03.949Z,5.29
2022-09-06T12:49:30.650Z,4.44
2022-09-06T12:52:07.803Z,4.30
2022-09-06T12:54:41.701Z,4.53
2022-09-06T12:57:18.173Z,3.29
2022-09-06T12:59:55.801Z,3.86
2022-09-06T13:02:37.934Z,3.62
2022-09-06T13:05:07.804Z,3.88
2022-09-06T13:07:40.301Z,3.49
2022-09-06T13:10:08.421Z,3.55
2022-09-06T13:12:38.023Z,3.73
2022-09-06T13:15:16.966Z,4.42
2022-09-06T13:17:43.888Z,4.65
2022-09-06T13:20:12.405Z,5.19
2022-09-06T13:22:47.450Z,5.00
2022-09-06T13:25:25.399Z,4.99
2022-09-06T13:27:57.842Z,4.57
2022-09-06T13:30:50.699Z,4.79
2022-09-06T13:33:26.176Z,5.15
2022-09-06T13:36:05.121Z,5.38
2022-09-06T13:38:37.887Z,4.90
2022-09-06T13:41:12.483Z,3.94
2022-09-06T13:43:45.022Z,4.46
2022-09-06T13:46:11.924Z,5.35
2022-09-06T13:48:39.698Z,5.05
2022-09-06T13:51:07.845Z,4.39
2022-09-06T13:53:34.775Z,4.61
2022-09-06T13:56:01.405Z,4.23
2022-09-06T13:58:29.535Z,4.59
2022-09-06T14:00:56.918Z,4.28
2022-09-06T14:03:28.851Z,4.02
2022-09-06T14:05:55.484Z,3.85
2022-09-06T14:08:22.130Z,3.56
2022-09-06T14:10:48.867Z,3.32
2022-09-06T14:13:16.110Z,3.12
2022-09-06T14:15:42.834Z,3.37
2022-09-06T14:18:13.820Z,4.15
2022-09-06T14:20:41.039Z,3.66
2022-09-06T14:23:08.096Z,3.61
2022-09-06T14:25:35.028Z,3.53
2022-09-06T14:28:02.598Z,3.69
2022-09-06T14:30:29.374Z,3.74
2022-09-06T14:32:56.271Z,3.85
2022-09-06T14:35:22.835Z,3.58
2022-09-06T14:37:49.449Z,3.50
2022-09-06T14:40:16.206Z,3.87
2022-09-06T14:42:42.810Z,3.82
2022-09-06T14:45:09.570Z,3.78
2022-09-06T14:47:36.190Z,4.26
2022-09-06T14:50:02.736Z,3.71
2022-09-06T14:52:29.557Z,4.08
2022-09-06T14:54:56.142Z,3.65
2022-09-06T14:57:22.754Z,3.30
2022-09-06T14:59:49.330Z,3.48
2022-09-06T15:02:16.063Z,3.45
2022-09-06T15:04:42.652Z,3.15
2022-09-06T15:07:10.554Z,3.28
2022-09-06T15:09:37.682Z,2.88
2022-09-06T15:12:04.418Z,3.08
2022-09-06T15:14:31.111Z,3.38
2022-09-06T15:16:59.863Z,2.86
2022-09-06T15:19:30.154Z,2.65
2022-09-06T15:21:57.612Z,2.81
2022-09-06T15:24:24.775Z,2.61
2022-09-06T15:26:51.465Z,2.64
2022-09-06T15:29:18.155Z,2.75
2022-09-06T15:31:50.131Z,2.79
2022-09-06T15:34:17.790Z,2.40
2022-09-06T15:36:44.390Z,2.48
2022-09-06T15:39:11.097Z,2.29
2022-09-06T15:41:39.714Z,2.56
2022-09-06T15:44:16.696Z,2.75
2022-09-06T15:46:46.096Z,2.59
2022-09-06T15:49:15.119Z,2.64
2022-09-06T15:51:42.885Z,2.59
2022-09-06T15:54:11.151Z,2.77
2022-09-06T15:56:37.972Z,2.53
2022-09-06T15:59:05.363Z,2.20
2022-09-06T16:01:34.106Z,2.30
2022-09-06T16:04:06.148Z,2.31
2022-09-06T16:06:37.763Z,2.75
2022-09-06T16:09:06.205Z,2.21
2022-09-06T16:11:35.649Z,1.49
2022-09-06T16:14:03.299Z,1.77
2022-09-06T16:16:30.075Z,1.45
2022-09-06T16:18:58.379Z,1.39
2022-09-06T16:21:26.485Z,1.23
2022-09-06T16:23:54.564Z,1.26
2022-09-06T16:26:22.073Z,1.33
2022-09-06T16:28:50.517Z,1.05
2022-09-06T16:31:17.974Z,1.07
2022-09-06T16:33:45.939Z,1.23
2022-09-06T16:36:13.927Z,1.17
2022-09-06T16:38:41.163Z,1.38
2022-09-06T16:41:17.302Z,1.57
2022-09-06T16:43:45.402Z,1.60
2022-09-06T16:46:12.320Z,1.83
2022-09-06T16:48:42.438Z,2.24
2022-09-06T16:51:16.750Z,2.14
2022-09-06T16:53:45.039Z,2.23
2022-09-06T16:56:12.995Z,2.28
2022-09-06T16:58:39.635Z,2.18
2022-09-06T17:01:06.383Z,2.40
2022-09-06T17:03:34.342Z,2.25
2022-09-06T17:06:00.867Z,2.36
2022-09-06T17:08:27.456Z,2.35
2022-09-06T17:10:54.240Z,2.35
2022-09-06T17:13:20.807Z,2.30
2022-09-06T17:16:13.444Z,2.38
2022-09-06T17:18:40.271Z,2.38
2022-09-06T17:21:08.183Z,2.36
2022-09-06T17:23:35.820Z,2.27
2022-09-06T17:26:03.078Z,2.21
2022-09-06T17:28:32.864Z,2.16
2022-09-06T17:31:03.921Z,2.17
2022-09-06T17:33:31.762Z,2.21
2022-09-06T17:36:05.866Z,1.98
2022-09-06T17:38:32.455Z,1.98
2022-09-06T17:41:00.170Z,2.15
2022-09-06T17:43:27.376Z,1.99
2022-09-06T17:45:54.165Z,2.14
2022-09-06T17:48:20.853Z,2.06
2022-09-06T17:50:47.672Z,2.08
2022-09-06T17:53:14.282Z,2.05
2022-09-06T17:55:41.595Z,2.10
2022-09-06T17:58:08.782Z,2.15
2022-09-06T18:00:38.585Z,2.15
2022-09-06T18:03:05.189Z,2.10
2022-09-06T18:05:35.574Z,2.10
2022-09-06T18:08:02.196Z,2.45
2022-09-06T18:10:28.939Z,2.52
2022-09-06T18:12:55.589Z,2.38
2022-09-06T18:15:22.365Z,2.21
2022-09-06T18:17:48.957Z,2.23
2022-09-06T18:20:15.776Z,2.45
2022-09-06T18:22:42.337Z,2.40
2022-09-06T18:25:09.025Z,2.59
2022-09-06T18:27:35.609Z,2.35
2022-09-06T18:30:02.232Z,2.26
2022-09-06T18:32:28.790Z,2.38
2022-09-06T18:34:55.393Z,2.46
2022-09-06T18:37:22.061Z,2.59
2022-09-06T18:39:48.795Z,2.53
2022-09-06T18:42:15.535Z,2.66
2022-09-06T18:44:42.265Z,2.62
2022-09-06T18:47:10.123Z,2.57
2022-09-06T18:49:40.554Z,2.94
2022-09-06T18:52:10.169Z,2.52
2022-09-06T18:54:36.802Z,2.63
2022-09-06T18:57:03.557Z,2.61
2022-09-06T18:59:30.113Z,2.59
2022-09-06T19:01:56.809Z,2.51
2022-09-06T19:04:23.756Z,2.47
2022-09-06T19:06:50.357Z,2.22
2022-09-06T19:09:17.342Z,2.29
2022-09-06T19:11:46.954Z,2.33
2022-09-06T19:14:13.915Z,2.52
2022-09-06T19:16:42.009Z,2.59
2022-09-06T19:19:09.964Z,2.05
2022-09-06T19:21:41.621Z,2.38
2022-09-06T19:24:10.242Z,2.56
2022-09-06T19:26:38.655Z,3.27
2022-09-06T19:29:07.432Z,3.35
2022-09-06T19:31:35.559Z,3.58
2022-09-06T19:34:02.488Z,3.38
2022-09-06T19:36:30.126Z,3.68
2022-09-06T19:39:06.310Z,3.70
2022-09-06T19:41:36.222Z,3.89
2022-09-06T19:44:05.922Z,3.57
2022-09-06T19:46:32.958Z,3.70
2022-09-06T19:49:00.592Z,3.69
2022-09-06T19:51:27.256Z,3.49
2022-09-06T19:53:57.795Z,3.44
2022-09-06T19:56:31.766Z,3.63
2022-09-06T19:58:59.803Z,3.67
2022-09-06T20:01:29.410Z,3.68
2022-09-06T20:03:56.221Z,3.73
2022-09-06T20:06:22.841Z,3.71
2022-09-06T20:08:50.837Z,3.83
2022-09-06T20:11:18.387Z,3.64
2022-09-06T20:13:45.026Z,3.72
2022-09-06T20:16:13.085Z,3.83
2022-09-06T20:18:40.323Z,4.42
2022-09-06T20:21:07.717Z,4.32
2022-09-06T20:23:35.297Z,4.47
2022-09-06T20:26:07.191Z,4.18
2022-09-06T20:28:34.550Z,4.53
2022-09-06T20:31:03.029Z,4.63
2022-09-06T20:33:30.431Z,4.48
2022-09-06T20:35:58.151Z,3.97
2022-09-06T20:38:25.589Z,4.04
2022-09-06T20:41:07.125Z,4.26
2022-09-06T20:43:36.609Z,4.38
2022-09-06T20:46:05.273Z,3.97
2022-09-06T20:48:33.088Z,3.74
2022-09-06T20:51:04.954Z,3.70
2022-09-06T20:53:34.518Z,3.63
2022-09-06T20:56:05.449Z,3.69
2022-09-06T20:58:32.894Z,3.77
2022-09-06T21:01:00.291Z,3.82
2022-09-06T21:03:28.020Z,3.36
2022-09-06T21:05:54.795Z,3.55
2022-09-06T21:08:22.696Z,3.75
2022-09-06T21:10:49.367Z,3.53
2022-09-06T21:13:16.011Z,3.73
2022-09-06T21:15:47.438Z,3.58
2022-09-06T21:18:15.744Z,3.74
2022-09-06T21:20:42.567Z,4.15
2022-09-06T21:23:09.210Z,4.15
2022-09-06T21:25:37.181Z,4.08
2022-09-06T21:28:04.395Z,3.95
2022-09-06T21:30:30.966Z,3.93
2022-09-06T21:32:57.570Z,3.84
2022-09-06T21:35:24.223Z,4.21
2022-09-06T21:37:51.253Z,3.85
2022-09-06T21:40:18.559Z,4.02
2022-09-06T21:42:45.104Z,4.22
2022-09-06T21:45:13.185Z,4.73
2022-09-06T21:47:41.389Z,4.72
2022-09-06T21:50:08.391Z,4.74
2022-09-06T21:52:35.143Z,4.74
2022-09-06T21:55:01.985Z,4.37
2022-09-06T21:57:28.660Z,4.52
2022-09-06T21:59:55.369Z,4.36
2022-09-06T22:02:24.262Z,4.42
2022-09-06T22:04:51.611Z,4.34
2022-09-06T22:07:18.683Z,3.90
2022-09-06T22:09:45.396Z,3.99
2022-09-06T22:12:11.909Z,4.36
2022-09-06T22:14:38.769Z,3.95
2022-09-06T22:17:05.322Z,3.82
2022-09-06T22:19:31.915Z,4.18
2022-09-06T22:21:58.438Z,3.92
2022-09-06T22:24:25.331Z,3.78
2022-09-06T22:26:51.953Z,3.64
2022-09-06T22:29:18.775Z,3.69
2022-09-06T22:31:46.213Z,3.41
2022-09-06T22:34:13.057Z,3.70
2022-09-06T22:36:39.605Z,3.70
2022-09-06T22:39:06.369Z,3.83
2022-09-06T22:41:33.957Z,4.05
2022-09-06T22:44:00.843Z,4.63
2022-09-06T22:46:27.536Z,4.62
2022-09-06T22:48:54.223Z,4.64
2022-09-06T22:51:20.861Z,4.32
2022-09-06T22:53:47.442Z,4.60
2022-09-06T22:56:14.134Z,4.77
2022-09-06T22:58:40.786Z,4.66
2022-09-06T23:01:09.453Z,5.04
2022-09-06T23:03:36.545Z,4.81
2022-09-06T23:06:03.892Z,4.54
2022-09-06T23:08:31.205Z,4.73
2022-09-06T23:10:57.841Z,4.45
2022-09-06T23:13:24.410Z,3.97
2022-09-06T23:15:51.013Z,3.35
2022-09-06T23:18:17.692Z,3.44
2022-09-06T23:20:44.287Z,3.34
2022-09-06T23:23:11.093Z,3.20
2022-09-06T23:25:38.818Z,3.40
2022-09-06T23:28:06.410Z,3.48
2022-09-06T23:30:37.150Z,3.54
2022-09-06T23:33:03.763Z,4.00
2022-09-06T23:35:30.352Z,3.49
2022-09-06T23:37:57.682Z,3.45
2022-09-06T23:40:24.452Z,3.11
2022-09-06T23:42:51.015Z,3.55
2022-09-06T23:45:17.592Z,3.78
2022-09-06T23:47:44.174Z,3.70
2022-09-06T23:50:10.791Z,3.17
2022-09-06T23:52:37.401Z,3.76
2022-09-06T23:55:04.271Z,3.76
2022-09-06T23:57:30.829Z,3.72
2022-09-06T23:59:57.363Z,3.18
